Date,TemperatureHighF,TemperatureAvgF,TemperatureLowF,DewpointHighF,DewpointAvgF,DewpointLowF,HumidityHigh,HumidityAvg,HumidityLow,PressureMaxIn,PressureMinIn,WindSpeedMaxMPH,WindSpeedAvgMPH,GustSpeedMaxMPH,PrecipitationSumIn
2013-2-1,73.0,65.9,59.2,61.2,55.4,50.3,75,69,54,31.23,31.12,8,5,16,0.00
2013-2-2,74.9,67.4,61.2,60.1,57.9,55.2,87,73,53,31.23,31.09,7,3,13,0.00
2013-2-3,75.1,67.7,63.9,62.3,57.1,45.5,91,70,47,31.16,31.03,6,2,10,0.00
2013-2-4,73.8,66.9,60.6,57.9,53.4,48.9,75,62,48,31.13,31.00,7,4,11,0.00
2013-2-5,77.5,71.0,63.1,66.1,62.6,56.3,87,75,61,31.06,30.98,5,2,8,0.00
2013-2-6,78.7,73.6,66.8,69.5,66.5,64.1,92,79,68,31.07,30.98,6,3,10,0.00
2013-2-7,78.9,74.1,69.5,69.0,67.2,64.8,94,79,69,31.05,30.91,7,3,11,0.00
2013-2-8,81.3,75.3,70.7,73.5,70.8,64.5,93,86,73,31.01,30.90,5,2,10,0.00
2013-2-9,79.2,72.9,66.4,70.8,66.2,61.9,90,80,71,31.11,30.98,9,5,16,0.00
2013-2-10,77.8,74.3,72.4,67.8,65.6,63.2,81,75,63,31.19,31.09,11,7,17,0.00
2013-2-11,77.3,74.4,72.3,69.0,67.8,65.7,85,80,74,31.17,31.07,12,8,18,0.00
2013-2-12,81.9,76.5,73.5,72.5,70.3,67.0,90,81,72,31.09,30.94,9,4,16,0.00
2013-2-13,82.3,77.0,74.4,74.3,72.4,70.9,93,86,74,30.99,30.89,6,3,11,0.00
2013-2-14,82.8,76.8,65.0,75.7,72.6,63.3,95,87,77,30.97,30.86,9,3,14,0.08
2013-2-15,76.2,69.1,65.2,70.7,67.1,63.7,97,93,82,30.98,30.89,6,2,13,0.73
2013-2-16,73.7,67.4,60.0,68.1,61.3,51.9,97,82,59,31.08,30.85,7,3,10,0.10
2013-2-17,59.9,58.7,57.8,52.5,51.2,49.2,78,76,73,31.10,31.08,7,5,13,0.10
2013-2-18,70.1,68.0,62.6,58.2,55.5,51.3,72,64,55,31.30,31.18,9,6,21,0.00
2013-2-19,75.0,71.4,68.2,68.3,64.7,57.3,90,80,67,31.18,31.06,10,5,13,0.00
2013-2-20,76.8,69.7,65.9,70.2,66.9,64.7,97,91,79,31.09,31.01,6,1,10,0.17
2013-2-21,72.2,72.1,72.1,66.7,66.6,66.6,83,83,83,30.98,30.98,2,2,10,0.00
2013-2-22,78.7,76.0,74.9,72.7,71.7,70.9,90,87,81,31.03,30.98,9,6,13,0.00
2013-2-23,82.5,77.2,74.5,75.6,72.8,70.3,94,86,77,31.01,30.89,8,4,13,0.00
2013-2-24,83.6,77.8,73.5,75.8,74.0,72.3,97,88,75,30.97,30.86,3,1,12,0.00
2013-2-25,83.5,77.6,75.6,75.4,73.8,72.5,94,88,75,30.87,30.81,5,3,12,0.00
2013-2-26,83.5,79.6,75.9,76.3,74.6,71.5,92,85,78,30.88,30.79,6,3,12,0.00
2013-2-27,83.8,77.8,72.6,75.3,72.7,69.5,93,85,72,30.93,30.82,6,2,12,0.00
2013-2-28,74.5,70.0,65.0,70.7,56.8,48.4,91,65,43,30.98,30.89,6,2,12,0.00